Map

Track Data

SID SEASON NUMBER BASIN SUBBASIN NAME ISO_TIME NATURE LAT LON WMO_WIND WMO_PRES WMO_AGENCY TRACK_TYPE DIST2LAND LANDFALL IFLAG USA_AGENCY USA_ATCF_ID USA_LAT USA_LON USA_RECORD USA_STATUS USA_WIND USA_PRES USA_SSHS USA_R34_NE USA_R34_SE USA_R34_SW USA_R34_NW USA_R50_NE USA_R50_SE USA_R50_SW USA_R50_NW USA_R64_NE USA_R64_SE USA_R64_SW USA_R64_NW USA_POCI USA_ROCI USA_RMW USA_EYE TOKYO_LAT TOKYO_LON TOKYO_GRADE TOKYO_WIND TOKYO_PRES TOKYO_R50_DIR TOKYO_R50_LONG TOKYO_R50_SHORT TOKYO_R30_DIR TOKYO_R30_LONG TOKYO_R30_SHORT TOKYO_LAND CMA_LAT CMA_LON CMA_CAT CMA_WIND CMA_PRES HKO_LAT HKO_LON HKO_CAT HKO_WIND HKO_PRES NEWDELHI_LAT NEWDELHI_LON NEWDELHI_GRADE NEWDELHI_WIND NEWDELHI_PRES NEWDELHI_CI NEWDELHI_DP NEWDELHI_POCI REUNION_LAT REUNION_LON REUNION_TYPE REUNION_WIND REUNION_PRES REUNION_TNUM REUNION_CI REUNION_RMW REUNION_R34_NE REUNION_R34_SE REUNION_R34_SW REUNION_R34_NW REUNION_R50_NE REUNION_R50_SE REUNION_R50_SW REUNION_R50_NW REUNION_R64_NE REUNION_R64_SE REUNION_R64_SW REUNION_R64_NW BOM_LAT BOM_LON BOM_TYPE BOM_WIND BOM_PRES BOM_TNUM BOM_CI BOM_RMW BOM_R34_NE BOM_R34_SE BOM_R34_SW BOM_R34_NW BOM_R50_NE BOM_R50_SE BOM_R50_SW BOM_R50_NW BOM_R64_NE BOM_R64_SE BOM_R64_SW BOM_R64_NW BOM_ROCI BOM_POCI BOM_EYE BOM_POS_METHOD BOM_PRES_METHOD NADI_LAT NADI_LON NADI_CAT NADI_WIND NADI_PRES WELLINGTON_LAT WELLINGTON_LON WELLINGTON_WIND WELLINGTON_PRES DS824_LAT DS824_LON DS824_STAGE DS824_WIND DS824_PRES TD9636_LAT TD9636_LON TD9636_STAGE TD9636_WIND TD9636_PRES TD9635_LAT TD9635_LON TD9635_WIND TD9635_PRES TD9635_ROCI NEUMANN_LAT NEUMANN_LON NEUMANN_CLASS NEUMANN_WIND NEUMANN_PRES MLC_LAT MLC_LON MLC_CLASS MLC_WIND MLC_PRES USA_GUST BOM_GUST BOM_GUST_PER REUNION_GUST REUNION_GUST_PER USA_SEAHGT USA_SEARAD_NE USA_SEARAD_SE USA_SEARAD_SW USA_SEARAD_NW STORM_SPEED STORM_DIR
1918235N28287 1918 50 NA NA NOT_NAMED 1918-08-23 06:00:00 TS 27.7000 -73.3000 35 hurdat_atl main 550 534 O_____________ hurdat_atl AL031918 27.7000 -73.3000 TS 35 0 15 316
1918235N28287 1918 50 NA NA NOT_NAMED 1918-08-23 09:00:00 TS 28.2404 -73.8916 main 534 534 P_____________ AL031918 28.2404 -73.8916 TS 35 0 15 316
1918235N28287 1918 50 NA NA NOT_NAMED 1918-08-23 12:00:00 TS 28.8000 -74.5000 35 hurdat_atl main 539 532 O_____________ hurdat_atl AL031918 28.8000 -74.5000 TS 35 0 16 317
1918235N28287 1918 50 NA NA NOT_NAMED 1918-08-23 15:00:00 TS 29.3925 -75.1227 main 534 484 P_____________ AL031918 29.3925 -75.1227 TS 37 0 16 319
1918235N28287 1918 50 NA NA NOT_NAMED 1918-08-23 18:00:00 TS 30.0000 -75.7000 40 hurdat_atl main 484 403 O_____________ hurdat_atl AL031918 30.0000 -75.7000 TS 40 0 15 322
1918235N28287 1918 50 NA NA NOT_NAMED 1918-08-23 21:00:00 TS 30.5998 -76.2029 main 403 328 P_____________ AL031918 30.5998 -76.2029 TS 40 0 14 327
1918235N28287 1918 50 NA NA NOT_NAMED 1918-08-24 00:00:00 TS 31.2000 -76.6000 40 hurdat_atl main 328 255 O_____________ hurdat_atl AL031918 31.2000 -76.6000 TS 40 0 14 334
1918235N28287 1918 50 NA NA NOT_NAMED 1918-08-24 03:00:00 TS 31.8073 -76.9029 main 255 186 P_____________ AL031918 31.8073 -76.9029 TS 45 0 13 341
1918235N28287 1918 50 NA NA NOT_NAMED 1918-08-24 06:00:00 TS 32.4000 -77.1000 50 hurdat_atl main 186 128 O_____________ hurdat_atl AL031918 32.4000 -77.1000 TS 50 0 12 346
1918235N28287 1918 50 NA NA NOT_NAMED 1918-08-24 09:00:00 TS 32.9724 -77.2599 main 119 78 P_____________ AL031918 32.9724 -77.2599 TS 55 0 11 351
1918235N28287 1918 50 NA NA NOT_NAMED 1918-08-24 12:00:00 TS 33.5000 -77.3000 60 hurdat_atl main 78 64 O_____________ hurdat_atl AL031918 33.5000 -77.3000 TS 60 0 10 3
1918235N28287 1918 50 NA NA NOT_NAMED 1918-08-24 15:00:00 TS 33.9739 -77.1947 main 56 33 P_____________ AL031918 33.9739 -77.1947 TS 62 0 9 15
1918235N28287 1918 50 NA NA NOT_NAMED 1918-08-24 18:00:00 TS 34.4000 -77.0000 65 hurdat_atl main 33 0 O_____________ hurdat_atl AL031918 34.4000 -77.0000 HU 65 1 9 22
1918235N28287 1918 50 NA NA NOT_NAMED 1918-08-24 21:00:00 TS 34.8000 -76.8000 65 hurdat_atl main 0 0 O_____________ hurdat_atl AL031918 34.8000 -76.8000 L HU 65 1 8 30
1918235N28287 1918 50 NA NA NOT_NAMED 1918-08-25 00:00:00 TS 35.1000 -76.5000 60 hurdat_atl main 9 0 O_____________ hurdat_atl AL031918 35.1000 -76.5000 TS 60 0 8 39
1918235N28287 1918 50 NA NA NOT_NAMED 1918-08-25 03:00:00 TS 35.4068 -76.1999 main 0 0 P_____________ AL031918 35.4068 -76.1999 TS 60 0 8 39
1918235N28287 1918 50 NA NA NOT_NAMED 1918-08-25 06:00:00 TS 35.7000 -75.9000 60 hurdat_atl main 0 0 O_____________ hurdat_atl AL031918 35.7000 -75.9000 TS 60 0 7 42
1918235N28287 1918 50 NA NA NOT_NAMED 1918-08-25 09:00:00 TS 35.9499 -75.6071 main 0 0 P_____________ AL031918 35.9499 -75.6071 TS 60 0 7 44
1918235N28287 1918 50 NA NA NOT_NAMED 1918-08-25 12:00:00 TS 36.2000 -75.3000 60 hurdat_atl main 34 34 O_____________ hurdat_atl AL031918 36.2000 -75.3000 TS 60 0 7 44
1918235N28287 1918 50 NA NA NOT_NAMED 1918-08-25 15:00:00 TS 36.4849 -74.9647 main 70 70 P_____________ AL031918 36.4849 -74.9647 TS 57 0 8 43
1918235N28287 1918 50 NA NA NOT_NAMED 1918-08-25 18:00:00 TS 36.8000 -74.6000 55 hurdat_atl main 115 115 O_____________ hurdat_atl AL031918 36.8000 -74.6000 TS 55 0 9 42
1918235N28287 1918 50 NA NA NOT_NAMED 1918-08-25 21:00:00 TS 37.1424 -74.2147 main 138 132 P_____________ AL031918 37.1424 -74.2147 TS 50 0 9 42
1918235N28287 1918 50 NA NA NOT_NAMED 1918-08-26 00:00:00 TS 37.5000 -73.8000 45 hurdat_atl main 144 144 O_____________ hurdat_atl AL031918 37.5000 -73.8000 TS 45 0 10 44
1918235N28287 1918 50 NA NA NOT_NAMED 1918-08-26 03:00:00 TS 37.8424 -73.3570 main 158 158 P_____________ AL031918 37.8424 -73.3570 TS 40 0 10 45
1918235N28287 1918 50 NA NA NOT_NAMED 1918-08-26 06:00:00 TS 38.2000 -72.9000 35 hurdat_atl main 185 183 O_____________ hurdat_atl AL031918 38.2000 -72.9000 TS 35 0 10 44
1918235N28287 1918 50 NA NA NOT_NAMED 1918-08-26 09:00:00 TS 38.5903 -72.4486 main 191 186 P_____________ AL031918 38.5903 -72.4486 TS 32 -1 11 41
1918235N28287 1918 50 NA NA NOT_NAMED 1918-08-26 12:00:00 ET 39.0000 -72.0000 30 hurdat_atl main 204 O_____________ hurdat_atl AL031918 39.0000 -72.0000 EX 30 -4 11 40

About IBTrACS Database

This database is a web-friendly format of International Best Track Archive for Climate Stewardship (IBTrACS), a global best track data archive curated by NOAA dating back to 1842.

Updated: 2021-10-21